createdAt,value
2023-03-22T00:01:25.497Z,49.01
2023-03-22T00:03:52.174Z,49.10
2023-03-22T00:06:19.053Z,49.33
2023-03-22T00:08:49.579Z,49.90
2023-03-22T00:11:16.086Z,50.15
2023-03-22T00:13:42.574Z,50.45
2023-03-22T00:16:09.570Z,50.61
2023-03-22T00:18:36.524Z,50.82
2023-03-22T00:21:03.202Z,50.45
2023-03-22T00:23:29.711Z,50.87
2023-03-22T00:25:56.856Z,50.50
2023-03-22T00:28:24.402Z,50.55
2023-03-22T00:30:57.254Z,50.66
2023-03-22T00:33:23.869Z,50.52
2023-03-22T00:35:57.607Z,50.99
2023-03-22T00:38:39.548Z,51.51
2023-03-22T00:41:17.073Z,51.56
2023-03-22T00:43:44.856Z,51.39
2023-03-22T00:46:13.079Z,51.70
2023-03-22T00:48:40.261Z,51.49
2023-03-22T00:51:08.233Z,51.50
2023-03-22T00:53:35.375Z,51.66
2023-03-22T00:56:03.381Z,52.00
2023-03-22T00:58:29.875Z,52.38
2023-03-22T01:00:56.397Z,52.70
2023-03-22T01:03:23.035Z,52.52
2023-03-22T01:05:51.276Z,52.72
2023-03-22T01:08:17.778Z,52.59
2023-03-22T01:10:44.881Z,53.15
2023-03-22T01:13:12.457Z,52.39
2023-03-22T01:15:39.007Z,52.79
2023-03-22T01:18:05.694Z,52.88
2023-03-22T01:20:32.281Z,51.96
2023-03-22T01:22:58.836Z,52.46
2023-03-22T01:25:25.437Z,52.30
2023-03-22T01:27:51.988Z,52.27
2023-03-22T01:30:18.535Z,51.96
2023-03-22T01:32:44.996Z,52.71
2023-03-22T01:35:11.572Z,52.79
2023-03-22T01:37:38.119Z,52.58
2023-03-22T01:40:05.577Z,52.59
2023-03-22T01:42:32.073Z,52.72
2023-03-22T01:45:35.803Z,52.76
2023-03-22T01:48:10.131Z,52.99
2023-03-22T01:50:41.069Z,52.74
2023-03-22T01:53:11.012Z,52.88
2023-03-22T01:55:38.046Z,52.86
2023-03-22T01:58:04.916Z,52.94
2023-03-22T02:00:33.110Z,52.99
2023-03-22T02:02:59.981Z,53.29
2023-03-22T02:05:26.773Z,53.85
2023-03-22T02:07:53.603Z,53.80
2023-03-22T02:10:25.974Z,54.42
2023-03-22T02:13:06.503Z,54.01
2023-03-22T02:16:10.239Z,53.97
2023-03-22T02:19:02.373Z,53.91
2023-03-22T02:22:14.708Z,54.51
2023-03-22T02:25:19.231Z,54.56
2023-03-22T02:27:45.629Z,54.89
2023-03-22T02:30:33.769Z,54.75
2023-03-22T02:33:21.650Z,54.54
2023-03-22T02:36:26.400Z,54.73
2023-03-22T02:38:58.364Z,54.37
2023-03-22T02:41:35.954Z,54.35
2023-03-22T02:44:23.124Z,54.33
2023-03-22T02:47:07.484Z,54.01
2023-03-22T02:49:53.283Z,54.22
2023-03-22T02:52:44.621Z,54.26
2023-03-22T02:55:16.045Z,54.14
2023-03-22T02:57:55.756Z,53.59
2023-03-22T03:00:25.823Z,53.86
2023-03-22T03:03:02.581Z,53.75
2023-03-22T03:05:33.354Z,53.58
2023-03-22T03:08:02.727Z,53.85
2023-03-22T03:10:29.976Z,54.75
2023-03-22T03:12:58.513Z,54.38
2023-03-22T03:15:25.081Z,54.46
2023-03-22T03:18:03.540Z,55.17
2023-03-22T03:20:56.442Z,54.88
2023-03-22T03:23:22.875Z,55.11
2023-03-22T03:26:14.510Z,55.36
2023-03-22T03:29:17.470Z,55.22
2023-03-22T03:31:55.711Z,55.32
2023-03-22T03:34:50.223Z,54.08
2023-03-22T03:37:29.015Z,54.76
2023-03-22T03:40:09.188Z,55.00
2023-03-22T03:42:42.048Z,55.22
2023-03-22T03:45:09.737Z,55.06
2023-03-22T03:47:37.156Z,55.73
2023-03-22T03:50:05.881Z,55.02
2023-03-22T03:52:32.470Z,55.38
2023-03-22T03:54:58.932Z,55.40
2023-03-22T03:57:25.411Z,55.13
2023-03-22T03:59:51.903Z,55.82
2023-03-22T04:02:18.489Z,55.86
2023-03-22T04:04:45.058Z,56.09
2023-03-22T04:07:11.812Z,55.85
2023-03-22T04:09:39.115Z,55.55
2023-03-22T04:12:05.897Z,55.43
2023-03-22T04:14:32.369Z,54.93
2023-03-22T04:16:58.935Z,55.40
2023-03-22T04:19:25.508Z,55.73
2023-03-22T04:21:52.382Z,55.79
2023-03-22T04:24:20.351Z,55.61
2023-03-22T04:26:47.065Z,55.09
2023-03-22T04:29:13.872Z,55.29
2023-03-22T04:31:40.380Z,55.30
2023-03-22T04:34:06.896Z,55.76
2023-03-22T04:36:35.390Z,56.08
2023-03-22T04:39:04.053Z,55.49
2023-03-22T04:41:30.526Z,55.30
2023-03-22T04:43:56.992Z,56.33
2023-03-22T04:46:24.122Z,55.98
2023-03-22T04:48:50.655Z,56.06
2023-03-22T04:51:17.172Z,56.16
2023-03-22T04:53:43.743Z,55.94
2023-03-22T04:56:13.288Z,56.52
2023-03-22T04:58:42.069Z,56.20
2023-03-22T05:01:10.689Z,55.94
2023-03-22T05:03:37.677Z,56.28
2023-03-22T05:06:07.249Z,56.50
2023-03-22T05:08:34.401Z,55.79
2023-03-22T05:11:07.883Z,56.62
2023-03-22T05:13:34.540Z,57.00
2023-03-22T05:16:01.088Z,56.71
2023-03-22T05:18:27.742Z,56.28
2023-03-22T05:20:57.235Z,56.65
2023-03-22T05:23:24.673Z,56.38
2023-03-22T05:25:53.734Z,56.58
2023-03-22T05:28:21.476Z,56.78
2023-03-22T05:30:49.601Z,56.56
2023-03-22T05:33:16.095Z,56.91
2023-03-22T05:35:43.191Z,57.35
2023-03-22T05:38:10.373Z,57.36
2023-03-22T05:40:36.886Z,57.61
2023-03-22T05:43:03.383Z,57.79
2023-03-22T05:45:29.877Z,57.48
2023-03-22T05:47:56.515Z,57.05
2023-03-22T05:50:23.674Z,56.95
2023-03-22T05:52:50.952Z,57.54
2023-03-22T05:55:18.130Z,57.51
2023-03-22T05:57:45.702Z,57.51
2023-03-22T06:00:15.610Z,56.65
2023-03-22T06:02:44.458Z,57.32
2023-03-22T06:05:11.177Z,57.09
2023-03-22T06:07:38.985Z,57.04
2023-03-22T06:10:06.825Z,56.96
2023-03-22T06:12:33.343Z,56.96
2023-03-22T06:15:00.017Z,57.21
2023-03-22T06:17:26.823Z,57.27
2023-03-22T06:19:53.382Z,56.95
2023-03-22T06:22:20.831Z,57.18
2023-03-22T06:24:47.640Z,57.04
2023-03-22T06:27:14.162Z,57.55
2023-03-22T06:29:40.866Z,57.40
2023-03-22T06:32:07.521Z,57.16
2023-03-22T06:34:34.249Z,56.93
2023-03-22T06:37:00.765Z,57.17
2023-03-22T06:39:27.588Z,56.83
2023-03-22T06:41:54.068Z,56.26
2023-03-22T06:44:20.567Z,56.17
2023-03-22T06:46:47.368Z,56.62
2023-03-22T06:49:13.882Z,56.43
2023-03-22T06:51:40.392Z,56.35
2023-03-22T06:54:06.975Z,55.97
2023-03-22T06:56:33.438Z,55.53
2023-03-22T06:58:59.934Z,55.88
2023-03-22T07:01:26.526Z,55.72
2023-03-22T07:03:53.033Z,55.72
2023-03-22T07:06:19.596Z,55.17
2023-03-22T07:08:46.084Z,55.32
2023-03-22T07:11:12.674Z,54.92
2023-03-22T07:13:39.141Z,54.51
2023-03-22T07:16:06.167Z,54.13
2023-03-22T07:18:32.722Z,53.34
2023-03-22T07:20:59.327Z,52.06
2023-03-22T07:23:25.853Z,52.39
2023-03-22T07:25:52.355Z,51.46
2023-03-22T07:28:18.892Z,50.32
2023-03-22T07:30:45.414Z,49.99
2023-03-22T07:33:11.909Z,49.48
2023-03-22T07:35:38.832Z,48.88
2023-03-22T07:38:06.024Z,48.81
2023-03-22T07:40:32.837Z,48.43
2023-03-22T07:42:59.391Z,47.69
2023-03-22T07:45:26.114Z,47.94
2023-03-22T07:47:52.766Z,46.58
2023-03-22T07:50:19.366Z,46.93
2023-03-22T07:52:45.968Z,46.96
2023-03-22T07:55:14.231Z,46.75
2023-03-22T07:57:41.006Z,47.80
2023-03-22T08:00:09.158Z,47.61
2023-03-22T08:02:35.927Z,47.79
2023-03-22T08:05:02.466Z,47.59
2023-03-22T08:07:28.978Z,47.30
2023-03-22T08:09:56.518Z,46.92
2023-03-22T08:12:24.368Z,48.39
2023-03-22T08:14:50.848Z,49.14
2023-03-22T08:17:18.129Z,48.05
2023-03-22T08:19:45.021Z,48.66
2023-03-22T08:22:12.763Z,48.33
2023-03-22T08:24:39.340Z,48.61
2023-03-22T08:27:05.820Z,49.38
2023-03-22T08:29:32.336Z,47.72
2023-03-22T08:31:58.859Z,47.66
2023-03-22T08:34:25.445Z,47.57
2023-03-22T08:36:51.919Z,47.40
2023-03-22T08:39:18.611Z,47.87
2023-03-22T08:41:45.073Z,47.03
2023-03-22T08:44:11.553Z,47.74
2023-03-22T08:46:38.035Z,48.05
2023-03-22T08:49:04.648Z,46.96
2023-03-22T08:51:31.233Z,47.70
2023-03-22T08:53:57.724Z,47.17
2023-03-22T08:56:24.194Z,46.54
2023-03-22T08:58:50.697Z,46.60
2023-03-22T09:01:17.524Z,47.03
2023-03-22T09:03:44.065Z,47.21
2023-03-22T09:06:11.089Z,47.62
2023-03-22T09:08:37.618Z,47.10
2023-03-22T09:11:04.662Z,45.72
2023-03-22T09:13:31.136Z,45.08
2023-03-22T09:15:57.711Z,44.06
2023-03-22T09:18:25.141Z,43.65
2023-03-22T09:20:52.680Z,42.49
2023-03-22T09:23:20.162Z,42.14
2023-03-22T09:25:48.009Z,41.36
2023-03-22T09:28:15.224Z,42.56
2023-03-22T09:30:43.031Z,41.88
2023-03-22T09:33:09.682Z,41.04
2023-03-22T09:35:40.778Z,41.11
2023-03-22T09:38:07.435Z,41.07
2023-03-22T09:40:36.365Z,41.48
2023-03-22T09:43:08.805Z,41.95
2023-03-22T09:45:40.926Z,41.68
2023-03-22T09:48:29.535Z,40.19
2023-03-22T09:50:56.414Z,41.20
2023-03-22T09:53:26.405Z,40.45
2023-03-22T09:56:17.244Z,40.90
2023-03-22T09:58:46.685Z,40.94
2023-03-22T10:01:13.239Z,40.47
2023-03-22T10:03:57.998Z,39.73
2023-03-22T10:06:29.004Z,40.86
2023-03-22T10:09:25.772Z,40.82
2023-03-22T10:12:24.806Z,40.13
2023-03-22T10:15:03.278Z,39.97
2023-03-22T10:17:30.957Z,39.87
2023-03-22T10:20:17.669Z,40.31
2023-03-22T10:22:47.460Z,39.59
2023-03-22T10:25:20.609Z,38.88
2023-03-22T10:27:50.171Z,39.41
2023-03-22T10:30:21.118Z,38.81
2023-03-22T10:33:12.454Z,38.31
2023-03-22T10:35:39.533Z,37.91
2023-03-22T10:38:18.890Z,37.05
2023-03-22T10:40:49.001Z,36.75
2023-03-22T10:43:23.473Z,37.27
2023-03-22T10:45:53.197Z,35.99
2023-03-22T10:48:30.444Z,34.65
2023-03-22T10:50:59.659Z,34.64
2023-03-22T10:53:39.573Z,35.46
2023-03-22T10:56:13.009Z,35.75
2023-03-22T10:58:39.674Z,35.49
2023-03-22T11:01:12.467Z,35.52
2023-03-22T11:04:03.112Z,35.34
2023-03-22T11:06:32.580Z,35.89
2023-03-22T11:09:16.723Z,36.46
2023-03-22T11:11:55.496Z,35.66
2023-03-22T11:14:33.000Z,35.11
2023-03-22T11:17:07.421Z,35.04
2023-03-22T11:19:49.936Z,33.78
2023-03-22T11:22:30.031Z,33.40
2023-03-22T11:24:56.609Z,35.13
2023-03-22T11:27:27.405Z,34.64
2023-03-22T11:29:58.565Z,35.64
2023-03-22T11:32:37.424Z,36.96
2023-03-22T11:35:21.517Z,36.21
2023-03-22T11:37:54.363Z,36.65
2023-03-22T11:40:24.401Z,37.18
2023-03-22T11:42:56.846Z,36.52
2023-03-22T11:45:37.768Z,37.36
2023-03-22T11:48:14.690Z,37.67
2023-03-22T11:50:44.624Z,38.38
2023-03-22T11:53:16.819Z,38.01
2023-03-22T11:55:45.701Z,38.62
2023-03-22T11:58:47.272Z,38.18
2023-03-22T12:01:26.614Z,38.86
2023-03-22T12:03:56.591Z,38.13
2023-03-22T12:06:28.967Z,38.50
2023-03-22T12:09:02.772Z,38.87
2023-03-22T12:11:43.328Z,39.25
2023-03-22T12:14:29.673Z,38.61
2023-03-22T12:17:05.938Z,37.48
2023-03-22T12:19:57.259Z,37.48
2023-03-22T12:22:47.382Z,36.46
2023-03-22T12:25:32.030Z,35.35
2023-03-22T12:28:12.921Z,35.33
2023-03-22T12:30:44.592Z,35.40
2023-03-22T12:33:32.541Z,35.31
2023-03-22T12:36:03.963Z,33.74
2023-03-22T12:38:49.018Z,34.42
2023-03-22T12:41:24.507Z,33.94
2023-03-22T12:44:07.918Z,34.10
2023-03-22T12:46:48.308Z,33.19
2023-03-22T12:49:27.628Z,33.83
2023-03-22T12:52:10.970Z,34.31
2023-03-22T12:54:38.439Z,33.65
2023-03-22T12:57:05.993Z,34.09
2023-03-22T12:59:32.887Z,34.39
2023-03-22T13:02:19.845Z,34.25
2023-03-22T13:04:52.376Z,33.92
2023-03-22T13:07:27.680Z,34.40
2023-03-22T13:09:54.639Z,33.57
2023-03-22T13:12:23.946Z,33.62
2023-03-22T13:14:50.360Z,30.92
2023-03-22T13:17:22.531Z,30.84
2023-03-22T13:19:54.721Z,30.52
2023-03-22T13:22:36.170Z,30.60
2023-03-22T13:25:12.524Z,31.00
2023-03-22T13:27:44.976Z,30.70
2023-03-22T13:30:36.560Z,31.18
2023-03-22T13:33:06.108Z,30.83
2023-03-22T13:35:44.749Z,31.36
2023-03-22T13:38:23.212Z,30.73
2023-03-22T13:40:59.640Z,29.64
2023-03-22T13:43:47.748Z,29.29
2023-03-22T13:46:29.740Z,29.00
2023-03-22T13:49:12.429Z,28.81
2023-03-22T13:51:40.605Z,27.73
2023-03-22T13:54:12.791Z,27.91
2023-03-22T13:56:42.311Z,27.95
2023-03-22T13:59:10.747Z,27.17
2023-03-22T14:01:52.840Z,26.62
2023-03-22T14:04:50.491Z,25.98
2023-03-22T14:07:29.264Z,25.83
2023-03-22T14:10:05.206Z,25.91
2023-03-22T14:12:59.684Z,26.41
2023-03-22T14:15:32.454Z,25.87
2023-03-22T14:18:14.517Z,25.78
2023-03-22T14:20:41.938Z,25.87
